sensor_id;sensor_type;location;lat;lon;timestamp;P1;durP1;ratioP1;P2;durP2;ratioP2
18391;SDS011;9322;50.932;5.318;2022-12-20T00:02:20;0.57;;;0.57;;
18391;SDS011;9322;50.932;5.318;2022-12-20T00:04:46;0.70;;;0.50;;
18391;SDS011;9322;50.932;5.318;2022-12-20T00:07:11;0.60;;;0.60;;
18391;SDS011;9322;50.932;5.318;2022-12-20T00:09:37;0.20;;;0.20;;
18391;SDS011;9322;50.932;5.318;2022-12-20T00:12:03;0.10;;;0.10;;
18391;SDS011;9322;50.932;5.318;2022-12-20T00:14:28;0.10;;;0.10;;
18391;SDS011;9322;50.932;5.318;2022-12-20T00:16:54;0.37;;;0.23;;
18391;SDS011;9322;50.932;5.318;2022-12-20T00:19:20;1.80;;;0.30;;
18391;SDS011;9322;50.932;5.318;2022-12-20T00:21:45;4.27;;;0.97;;
18391;SDS011;9322;50.932;5.318;2022-12-20T00:24:11;0.40;;;0.40;;
18391;SDS011;9322;50.932;5.318;2022-12-20T00:26:37;0.40;;;0.40;;
18391;SDS011;9322;50.932;5.318;2022-12-20T00:29:02;1.20;;;0.60;;
18391;SDS011;9322;50.932;5.318;2022-12-20T00:31:29;0.53;;;0.47;;
18391;SDS011;9322;50.932;5.318;2022-12-20T00:33:56;1.53;;;0.40;;
18391;SDS011;9322;50.932;5.318;2022-12-20T00:36:24;4.03;;;0.50;;
18391;SDS011;9322;50.932;5.318;2022-12-20T00:38:52;0.20;;;0.20;;
18391;SDS011;9322;50.932;5.318;2022-12-20T00:41:20;0.20;;;0.20;;
18391;SDS011;9322;50.932;5.318;2022-12-20T00:43:47;0.37;;;0.37;;
18391;SDS011;9322;50.932;5.318;2022-12-20T00:46:14;0.87;;;0.63;;
18391;SDS011;9322;50.932;5.318;2022-12-20T00:48:40;0.63;;;0.50;;
18391;SDS011;9322;50.932;5.318;2022-12-20T00:51:10;1.30;;;0.40;;
18391;SDS011;9322;50.932;5.318;2022-12-20T00:53:37;1.70;;;1.40;;
18391;SDS011;9322;50.932;5.318;2022-12-20T00:56:03;0.20;;;0.20;;
18391;SDS011;9322;50.932;5.318;2022-12-20T00:58:33;1.23;;;0.40;;
18391;SDS011;9322;50.932;5.318;2022-12-20T01:01:00;0.40;;;0.40;;
18391;SDS011;9322;50.932;5.318;2022-12-20T01:03:26;0.30;;;0.30;;
18391;SDS011;9322;50.932;5.318;2022-12-20T01:05:54;0.40;;;0.40;;
18391;SDS011;9322;50.932;5.318;2022-12-20T01:08:22;2.73;;;0.53;;
18391;SDS011;9322;50.932;5.318;2022-12-20T01:11:06;0.20;;;0.20;;
18391;SDS011;9322;50.932;5.318;2022-12-20T01:13:37;0.20;;;0.20;;
18391;SDS011;9322;50.932;5.318;2022-12-20T01:16:24;0.33;;;0.33;;
18391;SDS011;9322;50.932;5.318;2022-12-20T01:18:54;0.63;;;0.60;;
18391;SDS011;9322;50.932;5.318;2022-12-20T01:21:21;0.37;;;0.37;;
18391;SDS011;9322;50.932;5.318;2022-12-20T01:23:48;0.40;;;0.40;;
18391;SDS011;9322;50.932;5.318;2022-12-20T01:26:15;0.30;;;0.30;;
18391;SDS011;9322;50.932;5.318;2022-12-20T01:28:43;1.90;;;0.40;;
18391;SDS011;9322;50.932;5.318;2022-12-20T01:31:11;0.20;;;0.20;;
18391;SDS011;9322;50.932;5.318;2022-12-20T01:33:41;0.30;;;0.30;;
18391;SDS011;9322;50.932;5.318;2022-12-20T01:36:10;0.47;;;0.47;;
18391;SDS011;9322;50.932;5.318;2022-12-20T01:38:37;0.40;;;0.40;;
18391;SDS011;9322;50.932;5.318;2022-12-20T01:41:03;0.53;;;0.47;;
18391;SDS011;9322;50.932;5.318;2022-12-20T01:43:46;0.17;;;0.17;;
18391;SDS011;9322;50.932;5.318;2022-12-20T01:46:18;0.87;;;0.40;;
18391;SDS011;9322;50.932;5.318;2022-12-20T01:48:47;2.23;;;0.50;;
18391;SDS011;9322;50.932;5.318;2022-12-20T01:51:20;14.20;;;0.63;;
18391;SDS011;9322;50.932;5.318;2022-12-20T01:53:48;0.33;;;0.30;;
18391;SDS011;9322;50.932;5.318;2022-12-20T01:56:17;2.83;;;0.70;;
18391;SDS011;9322;50.932;5.318;2022-12-20T01:58:43;0.30;;;0.30;;
18391;SDS011;9322;50.932;5.318;2022-12-20T02:01:13;0.80;;;0.50;;
18391;SDS011;9322;50.932;5.318;2022-12-20T02:03:39;0.20;;;0.20;;
18391;SDS011;9322;50.932;5.318;2022-12-20T02:06:16;0.70;;;0.70;;
18391;SDS011;9322;50.932;5.318;2022-12-20T02:08:45;5.10;;;0.53;;
18391;SDS011;9322;50.932;5.318;2022-12-20T02:16:25;0.93;;;0.50;;
18391;SDS011;9322;50.932;5.318;2022-12-20T02:19:19;0.73;;;0.57;;
18391;SDS011;9322;50.932;5.318;2022-12-20T02:21:42;1.03;;;0.40;;
18391;SDS011;9322;50.932;5.318;2022-12-20T02:24:22;3.30;;;1.03;;
18391;SDS011;9322;50.932;5.318;2022-12-20T02:35:07;2.47;;;1.17;;
18391;SDS011;9322;50.932;5.318;2022-12-20T02:37:34;0.67;;;0.40;;
18391;SDS011;9322;50.932;5.318;2022-12-20T02:40:00;1.93;;;1.13;;
18391;SDS011;9322;50.932;5.318;2022-12-20T02:42:28;0.40;;;0.20;;
18391;SDS011;9322;50.932;5.318;2022-12-20T02:44:58;0.83;;;0.43;;
18391;SDS011;9322;50.932;5.318;2022-12-20T02:50:13;1.27;;;0.50;;
18391;SDS011;9322;50.932;5.318;2022-12-20T02:52:44;0.83;;;0.47;;
18391;SDS011;9322;50.932;5.318;2022-12-20T02:55:10;1.27;;;0.77;;
18391;SDS011;9322;50.932;5.318;2022-12-20T03:00:20;1.17;;;0.60;;
18391;SDS011;9322;50.932;5.318;2022-12-20T03:02:47;2.60;;;1.17;;
18391;SDS011;9322;50.932;5.318;2022-12-20T03:05:33;0.70;;;0.30;;
18391;SDS011;9322;50.932;5.318;2022-12-20T03:08:02;1.10;;;0.43;;
18391;SDS011;9322;50.932;5.318;2022-12-20T03:10:28;1.03;;;1.03;;
18391;SDS011;9322;50.932;5.318;2022-12-20T03:12:54;0.87;;;0.67;;
18391;SDS011;9322;50.932;5.318;2022-12-20T03:15:20;2.20;;;0.90;;
18391;SDS011;9322;50.932;5.318;2022-12-20T03:17:45;0.30;;;0.30;;
18391;SDS011;9322;50.932;5.318;2022-12-20T03:20:11;0.30;;;0.30;;
18391;SDS011;9322;50.932;5.318;2022-12-20T03:22:36;0.70;;;0.50;;
18391;SDS011;9322;50.932;5.318;2022-12-20T03:25:03;0.73;;;0.60;;
18391;SDS011;9322;50.932;5.318;2022-12-20T03:27:29;2.83;;;0.47;;
18391;SDS011;9322;50.932;5.318;2022-12-20T03:29:54;0.20;;;0.20;;
18391;SDS011;9322;50.932;5.318;2022-12-20T03:32:20;0.53;;;0.53;;
18391;SDS011;9322;50.932;5.318;2022-12-20T03:34:46;0.23;;;0.20;;
18391;SDS011;9322;50.932;5.318;2022-12-20T03:37:12;0.33;;;0.30;;
18391;SDS011;9322;50.932;5.318;2022-12-20T03:39:37;0.20;;;0.20;;
18391;SDS011;9322;50.932;5.318;2022-12-20T03:42:03;0.10;;;0.10;;
18391;SDS011;9322;50.932;5.318;2022-12-20T03:44:29;0.40;;;0.40;;
18391;SDS011;9322;50.932;5.318;2022-12-20T03:46:55;1.20;;;0.63;;
18391;SDS011;9322;50.932;5.318;2022-12-20T03:49:20;0.20;;;0.20;;
18391;SDS011;9322;50.932;5.318;2022-12-20T03:51:46;1.07;;;0.90;;
18391;SDS011;9322;50.932;5.318;2022-12-20T03:54:11;1.67;;;0.83;;
18391;SDS011;9322;50.932;5.318;2022-12-20T03:56:37;0.40;;;0.40;;
18391;SDS011;9322;50.932;5.318;2022-12-20T03:59:04;1.53;;;0.90;;
18391;SDS011;9322;50.932;5.318;2022-12-20T04:01:29;0.60;;;0.43;;
18391;SDS011;9322;50.932;5.318;2022-12-20T04:03:55;0.57;;;0.50;;
18391;SDS011;9322;50.932;5.318;2022-12-20T04:06:21;0.70;;;0.70;;
18391;SDS011;9322;50.932;5.318;2022-12-20T04:08:48;1.13;;;0.37;;
18391;SDS011;9322;50.932;5.318;2022-12-20T04:11:14;0.50;;;0.50;;
18391;SDS011;9322;50.932;5.318;2022-12-20T04:13:40;3.10;;;0.60;;
18391;SDS011;9322;50.932;5.318;2022-12-20T04:16:06;1.40;;;0.50;;
18391;SDS011;9322;50.932;5.318;2022-12-20T04:18:32;0.97;;;0.43;;
18391;SDS011;9322;50.932;5.318;2022-12-20T04:20:58;2.87;;;0.87;;
18391;SDS011;9322;50.932;5.318;2022-12-20T04:23:25;0.13;;;0.13;;
18391;SDS011;9322;50.932;5.318;2022-12-20T04:25:51;0.47;;;0.47;;
18391;SDS011;9322;50.932;5.318;2022-12-20T04:28:16;2.53;;;0.60;;
18391;SDS011;9322;50.932;5.318;2022-12-20T04:30:42;1.27;;;0.70;;
18391;SDS011;9322;50.932;5.318;2022-12-20T04:33:08;5.60;;;0.70;;
18391;SDS011;9322;50.932;5.318;2022-12-20T04:35:33;0.13;;;0.13;;
18391;SDS011;9322;50.932;5.318;2022-12-20T04:38:00;0.20;;;0.20;;
18391;SDS011;9322;50.932;5.318;2022-12-20T04:40:25;1.23;;;0.70;;
18391;SDS011;9322;50.932;5.318;2022-12-20T04:42:51;0.27;;;0.27;;
18391;SDS011;9322;50.932;5.318;2022-12-20T04:45:17;0.57;;;0.40;;
18391;SDS011;9322;50.932;5.318;2022-12-20T04:47:42;0.50;;;0.50;;
18391;SDS011;9322;50.932;5.318;2022-12-20T04:50:08;2.03;;;0.37;;
18391;SDS011;9322;50.932;5.318;2022-12-20T04:52:34;1.80;;;0.50;;
18391;SDS011;9322;50.932;5.318;2022-12-20T04:55:18;1.10;;;0.43;;
18391;SDS011;9322;50.932;5.318;2022-12-20T04:57:44;0.30;;;0.30;;
18391;SDS011;9322;50.932;5.318;2022-12-20T05:00:10;0.27;;;0.27;;
18391;SDS011;9322;50.932;5.318;2022-12-20T05:02:36;1.03;;;0.57;;
18391;SDS011;9322;50.932;5.318;2022-12-20T05:05:02;0.83;;;0.47;;
18391;SDS011;9322;50.932;5.318;2022-12-20T05:07:27;2.87;;;0.50;;
18391;SDS011;9322;50.932;5.318;2022-12-20T05:09:53;0.77;;;0.33;;
18391;SDS011;9322;50.932;5.318;2022-12-20T05:12:18;1.13;;;0.60;;
18391;SDS011;9322;50.932;5.318;2022-12-20T05:14:44;0.60;;;0.60;;
18391;SDS011;9322;50.932;5.318;2022-12-20T05:17:10;0.83;;;0.83;;
18391;SDS011;9322;50.932;5.318;2022-12-20T05:19:35;0.37;;;0.30;;
18391;SDS011;9322;50.932;5.318;2022-12-20T05:22:01;0.20;;;0.20;;
18391;SDS011;9322;50.932;5.318;2022-12-20T05:24:45;0.90;;;0.50;;
18391;SDS011;9322;50.932;5.318;2022-12-20T05:27:29;3.43;;;0.80;;
18391;SDS011;9322;50.932;5.318;2022-12-20T05:29:55;0.97;;;0.53;;
18391;SDS011;9322;50.932;5.318;2022-12-20T05:32:21;0.80;;;0.40;;
18391;SDS011;9322;50.932;5.318;2022-12-20T05:34:46;0.97;;;0.70;;
18391;SDS011;9322;50.932;5.318;2022-12-20T05:37:12;2.07;;;0.40;;
18391;SDS011;9322;50.932;5.318;2022-12-20T05:39:38;0.23;;;0.23;;
18391;SDS011;9322;50.932;5.318;2022-12-20T05:42:04;0.10;;;0.10;;
18391;SDS011;9322;50.932;5.318;2022-12-20T05:44:29;0.30;;;0.30;;
18391;SDS011;9322;50.932;5.318;2022-12-20T05:46:55;1.97;;;0.60;;
18391;SDS011;9322;50.932;5.318;2022-12-20T05:49:21;0.50;;;0.50;;
18391;SDS011;9322;50.932;5.318;2022-12-20T05:51:46;0.63;;;0.53;;
18391;SDS011;9322;50.932;5.318;2022-12-20T05:54:12;0.37;;;0.30;;
18391;SDS011;9322;50.932;5.318;2022-12-20T05:56:37;0.30;;;0.30;;
18391;SDS011;9322;50.932;5.318;2022-12-20T05:59:03;0.20;;;0.20;;
18391;SDS011;9322;50.932;5.318;2022-12-20T06:01:28;1.43;;;0.40;;
18391;SDS011;9322;50.932;5.318;2022-12-20T06:03:54;0.20;;;0.20;;
18391;SDS011;9322;50.932;5.318;2022-12-20T06:06:20;0.97;;;0.50;;
18391;SDS011;9322;50.932;5.318;2022-12-20T06:08:46;0.83;;;0.40;;
18391;SDS011;9322;50.932;5.318;2022-12-20T06:11:12;0.47;;;0.23;;
18391;SDS011;9322;50.932;5.318;2022-12-20T06:13:37;0.10;;;0.10;;
18391;SDS011;9322;50.932;5.318;2022-12-20T06:16:03;0.10;;;0.10;;
18391;SDS011;9322;50.932;5.318;2022-12-20T06:18:29;1.53;;;0.50;;
18391;SDS011;9322;50.932;5.318;2022-12-20T06:20:54;0.20;;;0.20;;
18391;SDS011;9322;50.932;5.318;2022-12-20T06:23:20;2.20;;;0.93;;
18391;SDS011;9322;50.932;5.318;2022-12-20T06:25:46;1.77;;;0.93;;
18391;SDS011;9322;50.932;5.318;2022-12-20T06:28:12;0.20;;;0.20;;
18391;SDS011;9322;50.932;5.318;2022-12-20T06:30:38;0.30;;;0.30;;
18391;SDS011;9322;50.932;5.318;2022-12-20T06:33:04;0.13;;;0.13;;
18391;SDS011;9322;50.932;5.318;2022-12-20T06:35:30;0.43;;;0.40;;
18391;SDS011;9322;50.932;5.318;2022-12-20T06:37:55;0.20;;;0.20;;
18391;SDS011;9322;50.932;5.318;2022-12-20T06:40:21;0.20;;;0.20;;
18391;SDS011;9322;50.932;5.318;2022-12-20T06:42:47;0.33;;;0.33;;
18391;SDS011;9322;50.932;5.318;2022-12-20T06:45:14;0.10;;;0.10;;
18391;SDS011;9322;50.932;5.318;2022-12-20T06:47:40;0.50;;;0.40;;
18391;SDS011;9322;50.932;5.318;2022-12-20T06:50:06;4.43;;;2.53;;
18391;SDS011;9322;50.932;5.318;2022-12-20T06:52:32;0.43;;;0.40;;
18391;SDS011;9322;50.932;5.318;2022-12-20T06:54:58;0.30;;;0.30;;
18391;SDS011;9322;50.932;5.318;2022-12-20T06:57:23;0.10;;;0.10;;
18391;SDS011;9322;50.932;5.318;2022-12-20T06:59:49;2.43;;;0.87;;
18391;SDS011;9322;50.932;5.318;2022-12-20T07:02:15;0.47;;;0.40;;
18391;SDS011;9322;50.932;5.318;2022-12-20T07:04:40;0.33;;;0.20;;
18391;SDS011;9322;50.932;5.318;2022-12-20T07:07:06;0.10;;;0.10;;
18391;SDS011;9322;50.932;5.318;2022-12-20T07:09:32;0.30;;;0.30;;
18391;SDS011;9322;50.932;5.318;2022-12-20T07:11:58;0.50;;;0.40;;
18391;SDS011;9322;50.932;5.318;2022-12-20T07:14:24;0.47;;;0.40;;
18391;SDS011;9322;50.932;5.318;2022-12-20T07:16:50;0.27;;;0.27;;
18391;SDS011;9322;50.932;5.318;2022-12-20T07:19:15;0.53;;;0.30;;
18391;SDS011;9322;50.932;5.318;2022-12-20T07:21:41;0.20;;;0.20;;
18391;SDS011;9322;50.932;5.318;2022-12-20T07:24:07;1.60;;;0.73;;
18391;SDS011;9322;50.932;5.318;2022-12-20T07:26:33;1.63;;;1.00;;
18391;SDS011;9322;50.932;5.318;2022-12-20T07:28:59;0.43;;;0.40;;
18391;SDS011;9322;50.932;5.318;2022-12-20T07:31:25;0.40;;;0.40;;
18391;SDS011;9322;50.932;5.318;2022-12-20T07:33:50;0.10;;;0.10;;
18391;SDS011;9322;50.932;5.318;2022-12-20T07:36:16;0.30;;;0.30;;
18391;SDS011;9322;50.932;5.318;2022-12-20T07:38:42;0.10;;;0.10;;
18391;SDS011;9322;50.932;5.318;2022-12-20T07:41:11;0.40;;;0.40;;
18391;SDS011;9322;50.932;5.318;2022-12-20T07:43:38;7.50;;;0.50;;
18391;SDS011;9322;50.932;5.318;2022-12-20T07:46:05;1.73;;;0.73;;
18391;SDS011;9322;50.932;5.318;2022-12-20T07:48:31;0.50;;;0.30;;
18391;SDS011;9322;50.932;5.318;2022-12-20T07:50:58;1.43;;;0.77;;
18391;SDS011;9322;50.932;5.318;2022-12-20T07:53:29;0.20;;;0.20;;
18391;SDS011;9322;50.932;5.318;2022-12-20T07:55:58;0.53;;;0.43;;
18391;SDS011;9322;50.932;5.318;2022-12-20T07:58:25;0.83;;;0.50;;
18391;SDS011;9322;50.932;5.318;2022-12-20T08:00:52;0.30;;;0.30;;
18391;SDS011;9322;50.932;5.318;2022-12-20T08:03:20;0.27;;;0.27;;
18391;SDS011;9322;50.932;5.318;2022-12-20T08:05:50;0.10;;;0.10;;
18391;SDS011;9322;50.932;5.318;2022-12-20T08:08:19;0.10;;;0.10;;
18391;SDS011;9322;50.932;5.318;2022-12-20T08:10:46;0.10;;;0.10;;
18391;SDS011;9322;50.932;5.318;2022-12-20T08:13:12;0.33;;;0.33;;
18391;SDS011;9322;50.932;5.318;2022-12-20T08:15:39;0.10;;;0.10;;
18391;SDS011;9322;50.932;5.318;2022-12-20T08:18:05;0.10;;;0.10;;
18391;SDS011;9322;50.932;5.318;2022-12-20T08:20:30;0.20;;;0.20;;
18391;SDS011;9322;50.932;5.318;2022-12-20T08:22:57;1.00;;;0.57;;
18391;SDS011;9322;50.932;5.318;2022-12-20T08:25:22;0.47;;;0.20;;
18391;SDS011;9322;50.932;5.318;2022-12-20T08:27:49;0.57;;;0.40;;
18391;SDS011;9322;50.932;5.318;2022-12-20T08:30:15;0.83;;;0.40;;
18391;SDS011;9322;50.932;5.318;2022-12-20T08:32:41;0.20;;;0.20;;
18391;SDS011;9322;50.932;5.318;2022-12-20T08:35:07;0.67;;;0.67;;
18391;SDS011;9322;50.932;5.318;2022-12-20T08:37:33;0.80;;;0.40;;
18391;SDS011;9322;50.932;5.318;2022-12-20T08:39:59;0.40;;;0.40;;
18391;SDS011;9322;50.932;5.318;2022-12-20T08:42:25;0.10;;;0.10;;
18391;SDS011;9322;50.932;5.318;2022-12-20T08:44:53;0.20;;;0.20;;
18391;SDS011;9322;50.932;5.318;2022-12-20T08:47:19;0.20;;;0.20;;
18391;SDS011;9322;50.932;5.318;2022-12-20T08:49:44;0.17;;;0.13;;
18391;SDS011;9322;50.932;5.318;2022-12-20T08:52:10;0.40;;;0.40;;
18391;SDS011;9322;50.932;5.318;2022-12-20T08:54:36;0.30;;;0.30;;
18391;SDS011;9322;50.932;5.318;2022-12-20T08:57:01;0.10;;;0.10;;
18391;SDS011;9322;50.932;5.318;2022-12-20T08:59:27;0.57;;;0.33;;
18391;SDS011;9322;50.932;5.318;2022-12-20T09:01:53;0.33;;;0.33;;
18391;SDS011;9322;50.932;5.318;2022-12-20T09:04:19;0.17;;;0.17;;
18391;SDS011;9322;50.932;5.318;2022-12-20T09:06:45;0.53;;;0.40;;
18391;SDS011;9322;50.932;5.318;2022-12-20T09:09:12;0.30;;;0.30;;
18391;SDS011;9322;50.932;5.318;2022-12-20T09:11:37;0.20;;;0.20;;
18391;SDS011;9322;50.932;5.318;2022-12-20T09:14:03;0.20;;;0.20;;
18391;SDS011;9322;50.932;5.318;2022-12-20T09:16:29;0.27;;;0.27;;
18391;SDS011;9322;50.932;5.318;2022-12-20T09:18:57;0.20;;;0.20;;
18391;SDS011;9322;50.932;5.318;2022-12-20T09:21:24;0.30;;;0.30;;
18391;SDS011;9322;50.932;5.318;2022-12-20T09:23:50;1.50;;;0.20;;
18391;SDS011;9322;50.932;5.318;2022-12-20T09:26:18;0.47;;;0.40;;
18391;SDS011;9322;50.932;5.318;2022-12-20T09:28:46;0.50;;;0.50;;
18391;SDS011;9322;50.932;5.318;2022-12-20T09:31:13;0.40;;;0.20;;
18391;SDS011;9322;50.932;5.318;2022-12-20T09:33:40;0.10;;;0.10;;
18391;SDS011;9322;50.932;5.318;2022-12-20T09:36:17;0.10;;;0.10;;
18391;SDS011;9322;50.932;5.318;2022-12-20T09:38:44;0.40;;;0.30;;
18391;SDS011;9322;50.932;5.318;2022-12-20T09:44:10;0.40;;;0.40;;
18391;SDS011;9322;50.932;5.318;2022-12-20T09:46:42;0.20;;;0.20;;
18391;SDS011;9322;50.932;5.318;2022-12-20T09:49:12;0.13;;;0.13;;
18391;SDS011;9322;50.932;5.318;2022-12-20T09:57:39;0.60;;;0.60;;
18391;SDS011;9322;50.932;5.318;2022-12-20T10:00:19;0.93;;;0.57;;
18391;SDS011;9322;50.932;5.318;2022-12-20T10:02:46;0.20;;;0.20;;
18391;SDS011;9322;50.932;5.318;2022-12-20T10:05:17;0.70;;;0.50;;
18391;SDS011;9322;50.932;5.318;2022-12-20T10:07:54;0.33;;;0.33;;
18391;SDS011;9322;50.932;5.318;2022-12-20T10:10:35;0.10;;;0.10;;
18391;SDS011;9322;50.932;5.318;2022-12-20T10:17:03;0.10;;;0.10;;
18391;SDS011;9322;50.932;5.318;2022-12-20T10:24:43;0.20;;;0.20;;
18391;SDS011;9322;50.932;5.318;2022-12-20T10:27:18;0.20;;;0.20;;
18391;SDS011;9322;50.932;5.318;2022-12-20T10:29:45;5.67;;;0.90;;
18391;SDS011;9322;50.932;5.318;2022-12-20T10:32:14;0.20;;;0.20;;
18391;SDS011;9322;50.932;5.318;2022-12-20T10:35:14;0.30;;;0.30;;
18391;SDS011;9322;50.932;5.318;2022-12-20T10:37:33;7.03;;;0.40;;
18391;SDS011;9322;50.932;5.318;2022-12-20T10:39:59;0.43;;;0.27;;
18391;SDS011;9322;50.932;5.318;2022-12-20T10:42:43;0.23;;;0.23;;
18391;SDS011;9322;50.932;5.318;2022-12-20T10:47:40;0.53;;;0.40;;
18391;SDS011;9322;50.932;5.318;2022-12-20T10:50:17;0.10;;;0.10;;
18391;SDS011;9322;50.932;5.318;2022-12-20T10:55:36;0.43;;;0.43;;
18391;SDS011;9322;50.932;5.318;2022-12-20T10:58:04;0.50;;;0.50;;
18391;SDS011;9322;50.932;5.318;2022-12-20T11:00:37;0.30;;;0.30;;
18391;SDS011;9322;50.932;5.318;2022-12-20T11:03:06;0.10;;;0.10;;
18391;SDS011;9322;50.932;5.318;2022-12-20T11:05:56;0.20;;;0.20;;
18391;SDS011;9322;50.932;5.318;2022-12-20T11:08:27;0.20;;;0.20;;
18391;SDS011;9322;50.932;5.318;2022-12-20T11:13:42;2.03;;;0.30;;
18391;SDS011;9322;50.932;5.318;2022-12-20T11:30:25;2.63;;;0.43;;
18391;SDS011;9322;50.932;5.318;2022-12-20T11:33:27;0.20;;;0.20;;
18391;SDS011;9322;50.932;5.318;2022-12-20T11:36:13;0.57;;;0.40;;
18391;SDS011;9322;50.932;5.318;2022-12-20T11:38:43;0.10;;;0.10;;
18391;SDS011;9322;50.932;5.318;2022-12-20T11:52:35;6.50;;;0.50;;
18391;SDS011;9322;50.932;5.318;2022-12-20T11:58:12;1.40;;;0.50;;
18391;SDS011;9322;50.932;5.318;2022-12-20T12:01:08;1.67;;;0.77;;
18391;SDS011;9322;50.932;5.318;2022-12-20T12:03:38;0.10;;;0.10;;
18391;SDS011;9322;50.932;5.318;2022-12-20T12:06:51;0.47;;;0.40;;
18391;SDS011;9322;50.932;5.318;2022-12-20T12:11:40;4.53;;;0.97;;
18391;SDS011;9322;50.932;5.318;2022-12-20T12:15:02;0.30;;;0.30;;
18391;SDS011;9322;50.932;5.318;2022-12-20T12:17:22;1.30;;;0.43;;
18391;SDS011;9322;50.932;5.318;2022-12-20T12:19:53;0.90;;;0.83;;
18391;SDS011;9322;50.932;5.318;2022-12-20T12:22:26;0.20;;;0.20;;
18391;SDS011;9322;50.932;5.318;2022-12-20T12:24:57;0.80;;;0.47;;
18391;SDS011;9322;50.932;5.318;2022-12-20T12:27:26;0.20;;;0.20;;
18391;SDS011;9322;50.932;5.318;2022-12-20T12:29:52;0.10;;;0.10;;
18391;SDS011;9322;50.932;5.318;2022-12-20T12:32:54;1.43;;;0.40;;
18391;SDS011;9322;50.932;5.318;2022-12-20T12:38:25;0.93;;;0.33;;
18391;SDS011;9322;50.932;5.318;2022-12-20T12:41:14;0.93;;;0.50;;
18391;SDS011;9322;50.932;5.318;2022-12-20T12:46:43;1.90;;;0.53;;
18391;SDS011;9322;50.932;5.318;2022-12-20T12:49:20;0.67;;;0.67;;
18391;SDS011;9322;50.932;5.318;2022-12-20T12:51:49;0.70;;;0.70;;
18391;SDS011;9322;50.932;5.318;2022-12-20T12:54:20;1.07;;;0.60;;
18391;SDS011;9322;50.932;5.318;2022-12-20T12:56:51;0.23;;;0.23;;
18391;SDS011;9322;50.932;5.318;2022-12-20T12:59:39;0.20;;;0.20;;
18391;SDS011;9322;50.932;5.318;2022-12-20T13:07:39;0.87;;;0.30;;
18391;SDS011;9322;50.932;5.318;2022-12-20T13:20:21;0.30;;;0.30;;
18391;SDS011;9322;50.932;5.318;2022-12-20T13:25:34;1.50;;;0.83;;
18391;SDS011;9322;50.932;5.318;2022-12-20T13:30:47;0.20;;;0.20;;
18391;SDS011;9322;50.932;5.318;2022-12-20T13:44:00;0.20;;;0.20;;
18391;SDS011;9322;50.932;5.318;2022-12-20T13:47:22;0.43;;;0.40;;
18391;SDS011;9322;50.932;5.318;2022-12-20T13:49:36;0.43;;;0.10;;
18391;SDS011;9322;50.932;5.318;2022-12-20T13:54:39;0.40;;;0.40;;
18391;SDS011;9322;50.932;5.318;2022-12-20T13:57:16;0.10;;;0.10;;
18391;SDS011;9322;50.932;5.318;2022-12-20T13:59:47;0.30;;;0.30;;
18391;SDS011;9322;50.932;5.318;2022-12-20T14:02:33;0.27;;;0.27;;
18391;SDS011;9322;50.932;5.318;2022-12-20T14:05:05;1.10;;;0.50;;
18391;SDS011;9322;50.932;5.318;2022-12-20T14:07:44;3.90;;;3.13;;
18391;SDS011;9322;50.932;5.318;2022-12-20T14:10:20;5.27;;;3.83;;
18391;SDS011;9322;50.932;5.318;2022-12-20T14:12:51;3.87;;;2.87;;
18391;SDS011;9322;50.932;5.318;2022-12-20T14:15:25;5.83;;;4.83;;
18391;SDS011;9322;50.932;5.318;2022-12-20T14:17:50;2.77;;;1.93;;
18391;SDS011;9322;50.932;5.318;2022-12-20T14:20:17;2.03;;;1.20;;
18391;SDS011;9322;50.932;5.318;2022-12-20T14:22:57;2.20;;;1.67;;
18391;SDS011;9322;50.932;5.318;2022-12-20T14:25:37;2.80;;;1.80;;
18391;SDS011;9322;50.932;5.318;2022-12-20T14:28:17;1.00;;;0.83;;
18391;SDS011;9322;50.932;5.318;2022-12-20T14:30:54;3.07;;;1.57;;
18391;SDS011;9322;50.932;5.318;2022-12-20T14:33:25;8.33;;;4.23;;
18391;SDS011;9322;50.932;5.318;2022-12-20T14:35:54;0.47;;;0.40;;
18391;SDS011;9322;50.932;5.318;2022-12-20T14:38:21;8.43;;;2.63;;
18391;SDS011;9322;50.932;5.318;2022-12-20T14:40:53;5.80;;;2.07;;
18391;SDS011;9322;50.932;5.318;2022-12-20T14:43:27;7.60;;;3.43;;
18391;SDS011;9322;50.932;5.318;2022-12-20T14:51:40;11.93;;;5.60;;
18391;SDS011;9322;50.932;5.318;2022-12-20T14:54:10;16.50;;;4.33;;
18391;SDS011;9322;50.932;5.318;2022-12-20T14:56:48;5.87;;;2.90;;
18391;SDS011;9322;50.932;5.318;2022-12-20T14:59:16;1.90;;;1.07;;
18391;SDS011;9322;50.932;5.318;2022-12-20T15:01:48;0.10;;;0.10;;
18391;SDS011;9322;50.932;5.318;2022-12-20T15:04:29;1.03;;;0.40;;
18391;SDS011;9322;50.932;5.318;2022-12-20T15:06:56;0.80;;;0.77;;
18391;SDS011;9322;50.932;5.318;2022-12-20T15:09:22;1.80;;;0.93;;
18391;SDS011;9322;50.932;5.318;2022-12-20T15:11:48;1.07;;;0.73;;
18391;SDS011;9322;50.932;5.318;2022-12-20T15:14:24;0.63;;;0.43;;
18391;SDS011;9322;50.932;5.318;2022-12-20T15:17:04;0.10;;;0.10;;
18391;SDS011;9322;50.932;5.318;2022-12-20T15:19:34;0.67;;;0.67;;
18391;SDS011;9322;50.932;5.318;2022-12-20T15:22:00;18.10;;;5.73;;
18391;SDS011;9322;50.932;5.318;2022-12-20T15:24:26;16.90;;;8.57;;
18391;SDS011;9322;50.932;5.318;2022-12-20T15:26:53;4.70;;;2.47;;
18391;SDS011;9322;50.932;5.318;2022-12-20T15:29:23;3.60;;;2.83;;
18391;SDS011;9322;50.932;5.318;2022-12-20T15:31:50;1.27;;;1.20;;
18391;SDS011;9322;50.932;5.318;2022-12-20T15:34:26;0.80;;;0.80;;
18391;SDS011;9322;50.932;5.318;2022-12-20T15:36:56;11.00;;;1.20;;
18391;SDS011;9322;50.932;5.318;2022-12-20T15:39:24;1.57;;;1.27;;
18391;SDS011;9322;50.932;5.318;2022-12-20T15:41:50;0.40;;;0.40;;
18391;SDS011;9322;50.932;5.318;2022-12-20T15:44:20;0.90;;;0.40;;
18391;SDS011;9322;50.932;5.318;2022-12-20T15:46:48;0.20;;;0.20;;
18391;SDS011;9322;50.932;5.318;2022-12-20T15:49:15;3.07;;;0.53;;
18391;SDS011;9322;50.932;5.318;2022-12-20T15:51:46;2.83;;;1.83;;
18391;SDS011;9322;50.932;5.318;2022-12-20T15:54:19;2.43;;;0.67;;
18391;SDS011;9322;50.932;5.318;2022-12-20T15:56:46;0.40;;;0.40;;
18391;SDS011;9322;50.932;5.318;2022-12-20T15:59:12;0.43;;;0.37;;
18391;SDS011;9322;50.932;5.318;2022-12-20T16:01:38;0.10;;;0.10;;
18391;SDS011;9322;50.932;5.318;2022-12-20T16:04:04;0.40;;;0.40;;
18391;SDS011;9322;50.932;5.318;2022-12-20T16:06:30;0.20;;;0.20;;
18391;SDS011;9322;50.932;5.318;2022-12-20T16:08:56;0.10;;;0.10;;
18391;SDS011;9322;50.932;5.318;2022-12-20T16:11:23;0.10;;;0.10;;
18391;SDS011;9322;50.932;5.318;2022-12-20T16:13:54;0.10;;;0.10;;
18391;SDS011;9322;50.932;5.318;2022-12-20T16:16:23;0.63;;;0.30;;
18391;SDS011;9322;50.932;5.318;2022-12-20T16:19:08;0.30;;;0.30;;
18391;SDS011;9322;50.932;5.318;2022-12-20T16:21:35;0.10;;;0.10;;
18391;SDS011;9322;50.932;5.318;2022-12-20T16:24:16;0.10;;;0.10;;
18391;SDS011;9322;50.932;5.318;2022-12-20T16:26:44;0.10;;;0.10;;
18391;SDS011;9322;50.932;5.318;2022-12-20T16:29:10;0.30;;;0.30;;
18391;SDS011;9322;50.932;5.318;2022-12-20T16:31:37;0.10;;;0.10;;
18391;SDS011;9322;50.932;5.318;2022-12-20T16:34:21;0.37;;;0.30;;
18391;SDS011;9322;50.932;5.318;2022-12-20T16:36:47;0.17;;;0.17;;
18391;SDS011;9322;50.932;5.318;2022-12-20T16:39:12;0.10;;;0.10;;
18391;SDS011;9322;50.932;5.318;2022-12-20T16:41:38;0.10;;;0.10;;
18391;SDS011;9322;50.932;5.318;2022-12-20T16:44:09;0.87;;;0.87;;
18391;SDS011;9322;50.932;5.318;2022-12-20T16:46:40;0.10;;;0.10;;
18391;SDS011;9322;50.932;5.318;2022-12-20T16:49:07;0.57;;;0.57;;
18391;SDS011;9322;50.932;5.318;2022-12-20T16:51:38;0.23;;;0.23;;
18391;SDS011;9322;50.932;5.318;2022-12-20T16:54:12;0.57;;;0.53;;
18391;SDS011;9322;50.932;5.318;2022-12-20T16:56:46;0.30;;;0.30;;
18391;SDS011;9322;50.932;5.318;2022-12-20T16:59:15;0.87;;;0.30;;
18391;SDS011;9322;50.932;5.318;2022-12-20T17:01:40;0.20;;;0.20;;
18391;SDS011;9322;50.932;5.318;2022-12-20T17:04:08;0.10;;;0.10;;
18391;SDS011;9322;50.932;5.318;2022-12-20T17:06:38;0.10;;;0.10;;
18391;SDS011;9322;50.932;5.318;2022-12-20T17:09:04;0.20;;;0.20;;
18391;SDS011;9322;50.932;5.318;2022-12-20T17:11:30;4.10;;;1.13;;
18391;SDS011;9322;50.932;5.318;2022-12-20T17:13:57;0.20;;;0.20;;
18391;SDS011;9322;50.932;5.318;2022-12-20T17:16:23;4.13;;;2.33;;